createdAt,value
2018-06-13T00:01:43.524Z,3.95
2018-06-13T00:04:18.070Z,4.18
2018-06-13T00:06:48.091Z,4.00
2018-06-13T00:09:22.684Z,4.32
2018-06-13T00:11:55.593Z,3.97
2018-06-13T00:14:25.732Z,4.32
2018-06-13T00:16:58.776Z,4.65
2018-06-13T00:19:33.258Z,3.55
2018-06-13T00:22:04.777Z,4.25
2018-06-13T00:24:37.926Z,4.70
2018-06-13T00:27:10.927Z,4.35
2018-06-13T00:29:44.764Z,5.12
2018-06-13T00:32:16.353Z,3.95
2018-06-13T00:34:49.039Z,4.90
2018-06-13T00:37:22.483Z,4.22
2018-06-13T00:39:52.438Z,4.40
2018-06-13T00:42:26.874Z,3.10
2018-06-13T00:45:00.901Z,3.53
2018-06-13T00:47:32.313Z,3.92
2018-06-13T00:50:02.742Z,4.12
2018-06-13T00:52:36.102Z,3.50
2018-06-13T00:55:08.102Z,4.18
2018-06-13T00:57:41.282Z,5.32
2018-06-13T01:00:14.574Z,3.97
2018-06-13T01:02:46.230Z,4.87
2018-06-13T01:05:20.736Z,4.45
2018-06-13T01:07:53.794Z,4.30
2018-06-13T01:10:25.304Z,4.25
2018-06-13T01:12:59.904Z,4.10
2018-06-13T01:15:32.879Z,5.05
2018-06-13T01:18:07.384Z,4.60
2018-06-13T01:20:40.372Z,4.32
2018-06-13T01:23:13.510Z,4.53
2018-06-13T01:25:46.663Z,4.10
2018-06-13T01:28:21.478Z,4.55
2018-06-13T01:30:52.735Z,4.68
2018-06-13T01:33:24.981Z,5.32
2018-06-13T01:35:58.242Z,4.82
2018-06-13T01:38:29.806Z,4.85
2018-06-13T01:41:04.701Z,4.40
2018-06-13T01:43:37.753Z,4.78
2018-06-13T01:46:11.251Z,5.25
2018-06-13T01:48:45.998Z,4.55
2018-06-13T01:51:19.099Z,4.28
2018-06-13T01:53:51.989Z,5.07
2018-06-13T01:56:26.565Z,4.43
2018-06-13T01:58:58.031Z,4.75
2018-06-13T02:01:29.741Z,4.80
2018-06-13T02:04:01.239Z,5.10
2018-06-13T02:06:35.951Z,4.75
2018-06-13T02:09:10.942Z,4.65
2018-06-13T02:11:40.856Z,5.07
2018-06-13T02:14:12.938Z,4.57
2018-06-13T02:16:47.747Z,4.05
2018-06-13T02:19:21.400Z,4.15
2018-06-13T02:21:56.626Z,4.80
2018-06-13T02:24:31.036Z,4.53
2018-06-13T02:27:04.393Z,4.55
2018-06-13T02:29:38.290Z,4.00
2018-06-13T02:32:09.821Z,3.50
2018-06-13T02:34:42.799Z,4.03
2018-06-13T02:37:17.737Z,3.03
2018-06-13T02:39:52.226Z,3.60
2018-06-13T02:42:23.696Z,2.65
2018-06-13T02:44:55.591Z,2.72
2018-06-13T02:47:28.295Z,3.47
2018-06-13T02:49:58.337Z,3.95
2018-06-13T02:52:29.135Z,3.58
2018-06-13T02:55:01.831Z,3.53
2018-06-13T02:57:35.835Z,4.18
2018-06-13T03:00:10.768Z,3.80
2018-06-13T03:02:43.769Z,4.10
2018-06-13T03:05:16.944Z,3.33
2018-06-13T03:07:49.797Z,3.03
2018-06-13T03:10:22.241Z,3.12
2018-06-13T03:12:52.131Z,3.05
2018-06-13T03:15:23.576Z,2.60
2018-06-13T03:17:56.695Z,3.80
2018-06-13T03:20:28.245Z,3.75
2018-06-13T03:23:01.414Z,4.15
2018-06-13T03:25:32.986Z,3.40
2018-06-13T03:28:05.963Z,3.00
2018-06-13T03:30:36.611Z,3.25
2018-06-13T03:33:09.688Z,3.08
2018-06-13T03:35:43.263Z,3.10
2018-06-13T03:38:18.193Z,3.17
2018-06-13T03:40:51.608Z,3.08
2018-06-13T03:43:23.032Z,4.00
2018-06-13T03:45:54.934Z,3.22
2018-06-13T03:48:28.745Z,3.10
2018-06-13T03:51:01.541Z,3.25
2018-06-13T03:53:35.399Z,3.70
2018-06-13T03:56:06.202Z,3.47
2018-06-13T03:58:37.879Z,3.03
2018-06-13T04:01:09.336Z,3.17
2018-06-13T04:03:42.606Z,3.55
2018-06-13T04:06:15.131Z,3.75
2018-06-13T04:08:46.287Z,3.42
2018-06-13T04:11:17.923Z,4.10
2018-06-13T04:13:52.818Z,2.92
2018-06-13T04:16:24.369Z,3.15
2018-06-13T04:18:57.637Z,2.97
2018-06-13T04:21:30.691Z,3.60
2018-06-13T04:24:05.312Z,3.62
2018-06-13T04:26:38.247Z,3.12
2018-06-13T04:29:12.037Z,3.50
2018-06-13T04:31:46.518Z,3.10
2018-06-13T04:34:18.137Z,3.92
2018-06-13T04:36:51.319Z,2.42
2018-06-13T04:39:24.769Z,3.85
2018-06-13T04:41:57.697Z,3.72
2018-06-13T04:44:29.148Z,3.28
2018-06-13T04:47:00.635Z,3.45
2018-06-13T04:49:34.071Z,3.05
2018-06-13T04:52:05.920Z,2.95
2018-06-13T04:54:40.777Z,3.35
2018-06-13T04:57:14.009Z,3.17
2018-06-13T04:59:45.700Z,2.85
2018-06-13T05:02:15.610Z,3.90
2018-06-13T05:04:46.822Z,3.70
2018-06-13T05:07:19.869Z,3.45
2018-06-13T05:09:51.484Z,3.50
2018-06-13T05:12:24.782Z,3.25
2018-06-13T05:14:57.257Z,3.50
2018-06-13T05:17:28.966Z,3.33
2018-06-13T05:19:59.141Z,2.50
2018-06-13T05:22:30.897Z,3.05
2018-06-13T05:25:03.491Z,3.42
2018-06-13T05:27:36.358Z,2.78
2018-06-13T05:30:09.320Z,3.67
2018-06-13T05:32:42.454Z,3.20
2018-06-13T05:35:15.477Z,3.15
2018-06-13T05:37:48.599Z,3.35
2018-06-13T05:40:21.945Z,3.37
2018-06-13T05:42:54.994Z,3.78
2018-06-13T05:45:28.103Z,4.28
2018-06-13T05:48:01.174Z,3.72
2018-06-13T05:50:34.040Z,3.47
2018-06-13T05:53:05.586Z,4.10
2018-06-13T05:55:38.999Z,3.42
2018-06-13T05:58:12.040Z,3.42
2018-06-13T06:00:44.960Z,3.17
2018-06-13T06:03:18.262Z,2.95
2018-06-13T06:05:51.366Z,3.42
2018-06-13T06:08:26.013Z,3.28
2018-06-13T06:10:57.639Z,3.15
2018-06-13T06:13:30.776Z,3.10
2018-06-13T06:16:05.712Z,2.80
2018-06-13T06:18:40.392Z,2.80
2018-06-13T06:21:11.867Z,2.22
2018-06-13T06:23:41.961Z,2.80
2018-06-13T06:26:13.125Z,2.75
2018-06-13T06:28:46.292Z,2.28
2018-06-13T06:31:20.926Z,2.62
2018-06-13T06:33:52.450Z,2.33
2018-06-13T06:36:25.723Z,2.28
2018-06-13T06:39:00.816Z,3.20
2018-06-13T06:41:33.773Z,2.42
2018-06-13T06:44:07.051Z,2.67
2018-06-13T06:46:40.071Z,2.40
2018-06-13T06:49:13.461Z,2.92
2018-06-13T06:51:45.363Z,2.80
2018-06-13T06:54:18.533Z,2.75
2018-06-13T06:56:49.958Z,2.70
2018-06-13T06:59:23.059Z,2.67
2018-06-13T07:01:56.005Z,3.22
2018-06-13T07:04:29.774Z,2.65
2018-06-13T07:07:02.656Z,2.80
2018-06-13T07:09:34.399Z,3.30
2018-06-13T07:12:05.976Z,3.00
2018-06-13T07:14:35.871Z,2.78
2018-06-13T07:17:06.179Z,2.75
2018-06-13T07:19:38.660Z,2.80
2018-06-13T07:22:11.152Z,2.97
2018-06-13T07:24:44.099Z,2.65
2018-06-13T07:27:18.495Z,2.92
2018-06-13T07:29:51.438Z,2.87
2018-06-13T07:32:23.697Z,2.55
2018-06-13T07:34:58.245Z,2.45
2018-06-13T07:37:31.131Z,2.50
2018-06-13T07:40:04.321Z,2.72
2018-06-13T07:42:38.780Z,2.80
2018-06-13T07:45:11.784Z,2.22
2018-06-13T07:47:46.388Z,2.05
2018-06-13T07:50:19.292Z,1.92
2018-06-13T07:52:49.251Z,2.40
2018-06-13T07:55:22.209Z,2.40
2018-06-13T07:57:53.519Z,1.87
2018-06-13T08:00:24.972Z,2.22
2018-06-13T08:02:55.537Z,1.62
2018-06-13T08:05:26.953Z,1.50
2018-06-13T08:07:58.337Z,2.30
2018-06-13T08:10:30.977Z,2.12
2018-06-13T08:13:03.920Z,2.12
2018-06-13T08:15:37.745Z,1.90
2018-06-13T08:18:09.404Z,1.92
2018-06-13T08:20:40.772Z,2.22
2018-06-13T08:23:15.657Z,2.22
2018-06-13T08:25:46.312Z,2.25
2018-06-13T08:28:19.206Z,1.90
2018-06-13T08:30:52.132Z,2.00
2018-06-13T08:33:24.346Z,1.95
2018-06-13T08:35:54.321Z,2.15
2018-06-13T08:38:25.985Z,2.15
2018-06-13T08:40:57.560Z,2.20
2018-06-13T08:43:30.468Z,1.83
2018-06-13T08:46:03.480Z,1.92
2018-06-13T08:48:35.121Z,1.58
2018-06-13T08:51:07.967Z,1.60
2018-06-13T08:53:39.463Z,2.35
2018-06-13T08:56:13.158Z,1.60
2018-06-13T08:58:45.109Z,1.67
2018-06-13T09:01:18.077Z,1.73
2018-06-13T09:03:51.581Z,1.80
2018-06-13T09:06:24.397Z,1.58
2018-06-13T09:08:54.403Z,1.65
2018-06-13T09:11:27.643Z,1.55
2018-06-13T09:14:00.756Z,1.65
2018-06-13T09:16:35.337Z,1.92
2018-06-13T09:19:07.572Z,1.75
2018-06-13T09:21:38.203Z,1.58
2018-06-13T09:24:09.381Z,1.85
2018-06-13T09:26:40.962Z,2.20
2018-06-13T09:29:15.408Z,1.80
2018-06-13T09:31:46.824Z,1.98
2018-06-13T09:34:19.771Z,2.35
2018-06-13T09:36:50.024Z,1.77
2018-06-13T09:39:22.837Z,2.15
2018-06-13T09:42:06.554Z,2.40
2018-06-13T09:44:38.624Z,1.92
2018-06-13T09:47:15.138Z,1.73
2018-06-13T09:49:44.447Z,2.12
2018-06-13T09:52:17.320Z,1.62
2018-06-13T09:54:48.836Z,2.17
2018-06-13T09:57:20.217Z,1.90
2018-06-13T10:00:10.764Z,1.98
2018-06-13T10:02:42.327Z,2.05
2018-06-13T10:05:13.794Z,1.83
2018-06-13T10:07:46.843Z,2.15
2018-06-13T10:10:16.796Z,1.73
2018-06-13T10:12:48.421Z,1.42
2018-06-13T10:15:22.873Z,1.98
2018-06-13T10:17:56.380Z,1.98
2018-06-13T10:20:28.521Z,2.10
2018-06-13T10:23:00.049Z,1.70
2018-06-13T10:25:31.626Z,1.80
2018-06-13T10:28:01.534Z,1.73
2018-06-13T10:30:34.515Z,1.70
2018-06-13T10:33:04.432Z,2.22
2018-06-13T10:35:36.224Z,1.80
2018-06-13T10:38:10.520Z,1.52
2018-06-13T10:40:46.118Z,1.77
2018-06-13T10:43:16.696Z,1.92
2018-06-13T10:45:49.874Z,1.98
2018-06-13T10:48:21.463Z,2.25
2018-06-13T10:50:53.415Z,1.85
2018-06-13T10:53:24.930Z,2.30
2018-06-13T10:55:58.264Z,1.90
2018-06-13T10:58:31.295Z,2.30
2018-06-13T11:01:01.277Z,2.00
2018-06-13T11:03:35.773Z,2.15
2018-06-13T11:06:08.686Z,1.95
2018-06-13T11:08:41.690Z,1.85
2018-06-13T11:11:14.486Z,1.95
2018-06-13T11:13:46.087Z,2.00
2018-06-13T11:16:17.554Z,2.03
2018-06-13T11:18:50.764Z,2.03
2018-06-13T11:21:22.282Z,2.03
2018-06-13T11:23:53.762Z,2.05
2018-06-13T11:26:25.495Z,1.80
2018-06-13T11:28:58.512Z,1.73
2018-06-13T11:31:30.158Z,2.00
2018-06-13T11:34:04.763Z,2.17
2018-06-13T11:36:37.922Z,1.80
2018-06-13T11:39:14.055Z,2.15
2018-06-13T11:41:44.125Z,2.20
2018-06-13T11:44:18.669Z,1.98
2018-06-13T11:46:50.325Z,1.98
2018-06-13T11:49:21.901Z,1.60
2018-06-13T11:51:54.132Z,1.87
2018-06-13T11:54:24.041Z,2.00
2018-06-13T11:56:55.555Z,1.90
2018-06-13T11:59:26.933Z,2.12
2018-06-13T12:01:57.828Z,1.62
2018-06-13T12:04:29.437Z,1.77
2018-06-13T12:07:01.151Z,1.70
2018-06-13T12:09:32.640Z,1.98
2018-06-13T12:12:02.653Z,2.17
2018-06-13T12:14:35.597Z,1.85
2018-06-13T12:17:08.610Z,2.15
2018-06-13T12:19:41.543Z,1.95
2018-06-13T12:22:12.036Z,2.20
2018-06-13T12:24:46.683Z,1.70
2018-06-13T12:27:21.112Z,1.52
2018-06-13T12:29:54.324Z,2.20
2018-06-13T12:32:25.736Z,2.10
2018-06-13T12:34:57.681Z,1.95
2018-06-13T12:37:30.607Z,2.00
2018-06-13T12:40:02.038Z,1.42
2018-06-13T12:42:35.161Z,1.70
2018-06-13T12:45:09.828Z,2.00
2018-06-13T12:47:41.326Z,2.05
2018-06-13T12:50:14.295Z,2.45
2018-06-13T12:52:44.803Z,2.20
2018-06-13T12:55:14.729Z,2.95
2018-06-13T12:57:46.340Z,2.45
2018-06-13T13:00:17.822Z,2.50
2018-06-13T13:02:50.997Z,2.00
2018-06-13T13:05:24.192Z,1.90
2018-06-13T13:07:57.401Z,2.80
2018-06-13T13:10:32.281Z,2.22
2018-06-13T13:13:05.648Z,2.30
2018-06-13T13:15:39.484Z,3.20
2018-06-13T13:18:10.031Z,2.50
2018-06-13T13:20:42.989Z,3.08
2018-06-13T13:23:14.728Z,2.00
2018-06-13T13:25:47.843Z,2.25
2018-06-13T13:28:21.213Z,2.15
2018-06-13T13:30:54.178Z,2.25
2018-06-13T13:33:25.750Z,2.67
2018-06-13T13:35:59.031Z,2.03
2018-06-13T13:38:32.550Z,2.75
2018-06-13T13:41:04.262Z,2.65
2018-06-13T13:43:35.713Z,2.72
2018-06-13T13:46:08.612Z,2.50
2018-06-13T13:48:41.628Z,2.70
2018-06-13T13:51:15.974Z,2.65
2018-06-13T13:53:48.928Z,2.67
2018-06-13T13:56:20.873Z,2.58
2018-06-13T13:58:52.449Z,2.50
2018-06-13T14:01:25.525Z,2.47
2018-06-13T14:03:56.963Z,2.47
2018-06-13T14:06:29.827Z,2.60
2018-06-13T14:09:00.588Z,2.70
2018-06-13T14:11:30.600Z,2.72
2018-06-13T14:14:03.817Z,2.83
2018-06-13T14:16:33.728Z,2.60
2018-06-13T14:19:05.173Z,2.67
2018-06-13T14:21:36.104Z,2.67
2018-06-13T14:24:09.339Z,2.95
2018-06-13T14:26:43.705Z,3.42
2018-06-13T14:29:17.031Z,2.40
2018-06-13T14:31:48.319Z,3.25
2018-06-13T14:34:21.200Z,3.05
2018-06-13T14:36:54.111Z,3.20
2018-06-13T14:39:25.572Z,3.08
2018-06-13T14:41:58.466Z,3.30
2018-06-13T14:44:31.404Z,3.30
2018-06-13T14:47:04.428Z,3.37
2018-06-13T14:49:37.635Z,3.37
2018-06-13T14:52:10.452Z,2.37
2018-06-13T14:54:43.689Z,3.17
2018-06-13T14:57:18.951Z,2.80
2018-06-13T14:59:49.058Z,3.33
2018-06-13T15:02:21.352Z,2.70
2018-06-13T15:04:55.760Z,3.42
2018-06-13T15:07:26.339Z,2.90
2018-06-13T15:09:57.831Z,3.03
2018-06-13T15:12:29.502Z,3.33
2018-06-13T15:15:02.391Z,2.78
2018-06-13T15:17:35.292Z,2.90
2018-06-13T15:20:09.627Z,2.70
2018-06-13T15:22:40.190Z,2.80
2018-06-13T15:25:13.205Z,3.37
2018-06-13T15:27:43.089Z,2.92
2018-06-13T15:30:16.091Z,3.05
2018-06-13T15:32:50.439Z,3.08
2018-06-13T15:35:22.568Z,2.72
2018-06-13T15:37:55.504Z,2.87
2018-06-13T15:40:28.436Z,2.78
2018-06-13T15:42:58.355Z,2.75
2018-06-13T15:45:29.830Z,3.42
2018-06-13T15:48:04.465Z,3.22
2018-06-13T15:50:34.362Z,2.22
2018-06-13T15:53:04.906Z,2.75
2018-06-13T15:55:34.909Z,2.80
2018-06-13T15:58:06.293Z,2.75
2018-06-13T16:00:37.892Z,3.22
2018-06-13T16:03:11.800Z,3.22
2018-06-13T16:05:44.730Z,2.87
2018-06-13T16:08:17.087Z,3.22
2018-06-13T16:10:49.943Z,3.10
2018-06-13T16:13:21.472Z,3.45
2018-06-13T16:15:54.424Z,3.17
2018-06-13T16:18:25.928Z,2.95
2018-06-13T16:20:59.333Z,2.53
2018-06-13T16:23:32.685Z,2.78
2018-06-13T16:26:05.726Z,2.87
2018-06-13T16:28:38.549Z,3.33
2018-06-13T16:31:12.837Z,2.80
2018-06-13T16:33:45.372Z,3.22
2018-06-13T16:36:18.335Z,3.00
2018-06-13T16:38:51.296Z,3.40
2018-06-13T16:41:23.318Z,3.17
2018-06-13T16:43:54.804Z,2.97
2018-06-13T16:46:26.255Z,3.45
2018-06-13T16:48:59.780Z,3.20
2018-06-13T16:51:57.724Z,3.05
2018-06-13T16:54:59.896Z,3.70
2018-06-13T16:57:29.804Z,3.03
2018-06-13T17:00:01.208Z,3.67
2018-06-13T17:02:33.042Z,3.87
2018-06-13T17:05:03.006Z,3.30
2018-06-13T17:07:34.483Z,3.85
2018-06-13T17:10:07.672Z,3.47
2018-06-13T17:12:40.795Z,3.78
2018-06-13T17:15:11.359Z,3.90
2018-06-13T17:17:44.331Z,3.60
2018-06-13T17:20:19.181Z,3.55
2018-06-13T17:22:49.170Z,3.78
2018-06-13T17:25:19.131Z,3.37
2018-06-13T17:27:53.877Z,3.58
2018-06-13T17:30:25.400Z,3.28
2018-06-13T17:32:56.755Z,3.40
2018-06-13T17:35:29.770Z,3.25
2018-06-13T17:37:59.886Z,3.45
2018-06-13T17:40:32.089Z,3.35
2018-06-13T17:43:06.627Z,3.75
2018-06-13T17:45:36.584Z,3.85
2018-06-13T17:48:08.195Z,3.47
2018-06-13T17:50:42.874Z,3.78
2018-06-13T17:53:15.639Z,4.07
2018-06-13T17:55:47.072Z,3.65
2018-06-13T17:58:20.282Z,3.60
2018-06-13T18:00:51.913Z,3.90
2018-06-13T18:03:25.362Z,3.62
2018-06-13T18:05:56.721Z,3.33
2018-06-13T18:08:29.724Z,3.12
2018-06-13T18:11:04.252Z,3.50
2018-06-13T18:13:35.736Z,3.55
2018-06-13T18:16:07.210Z,3.12
2018-06-13T18:18:39.107Z,3.85
2018-06-13T18:21:10.695Z,3.72
2018-06-13T18:23:42.210Z,3.80
2018-06-13T18:26:15.377Z,4.55
2018-06-13T18:28:45.271Z,4.57
2018-06-13T18:31:18.354Z,3.40
2018-06-13T18:33:50.583Z,3.40
2018-06-13T18:36:20.447Z,3.53
2018-06-13T18:38:51.142Z,3.47
2018-06-13T18:41:23.071Z,3.62
2018-06-13T18:43:57.432Z,3.67
2018-06-13T18:46:27.377Z,3.70
2018-06-13T18:49:01.702Z,3.95
2018-06-13T18:51:33.219Z,3.37
2018-06-13T18:54:04.617Z,3.62
2018-06-13T18:56:37.655Z,3.45
2018-06-13T18:59:09.076Z,4.03
2018-06-13T19:01:42.073Z,3.28
2018-06-13T19:04:14.055Z,3.45
2018-06-13T19:06:48.315Z,3.60
2018-06-13T19:09:21.243Z,3.67
2018-06-13T19:11:55.688Z,4.03
2018-06-13T19:14:27.528Z,3.90
2018-06-13T19:16:58.015Z,3.80
2018-06-13T19:19:29.523Z,3.62
2018-06-13T19:22:02.169Z,3.55
2018-06-13T19:24:35.128Z,3.92
2018-06-13T19:27:07.989Z,4.03
2018-06-13T19:29:39.721Z,3.45
2018-06-13T19:32:11.409Z,3.45
2018-06-13T19:34:42.869Z,3.67
2018-06-13T19:37:15.856Z,3.47
2018-06-13T19:39:47.471Z,3.30
2018-06-13T19:42:20.710Z,3.50
2018-06-13T19:44:53.656Z,3.53
2018-06-13T19:47:42.930Z,4.00
2018-06-13T19:50:16.126Z,4.65
2018-06-13T19:53:04.759Z,4.47
2018-06-13T19:55:55.359Z,4.60
2018-06-13T19:58:28.460Z,4.75
2018-06-13T20:01:01.975Z,4.35
2018-06-13T20:03:51.250Z,4.80
2018-06-13T20:06:24.521Z,5.25
2018-06-13T20:08:56.983Z,4.25
2018-06-13T20:11:29.923Z,5.03
2018-06-13T20:14:17.529Z,4.50
2018-06-13T20:17:07.506Z,4.28
2018-06-13T20:19:42.540Z,4.07
2018-06-13T20:22:14.046Z,4.70
2018-06-13T20:25:04.522Z,5.20
2018-06-13T20:27:53.452Z,4.40
2018-06-13T20:30:43.009Z,4.25
2018-06-13T20:33:17.251Z,5.53
2018-06-13T20:35:50.736Z,3.80
2018-06-13T20:38:23.818Z,4.40
2018-06-13T20:40:55.891Z,4.70
2018-06-13T20:43:29.480Z,4.40
2018-06-13T20:46:04.224Z,4.72
2018-06-13T20:48:37.171Z,4.70
2018-06-13T20:51:10.586Z,4.97
2018-06-13T20:53:45.190Z,4.62
2018-06-13T20:56:18.340Z,4.12
2018-06-13T20:58:53.068Z,5.03
2018-06-13T21:01:27.877Z,4.43
2018-06-13T21:04:02.249Z,4.62
2018-06-13T21:06:33.805Z,4.78
2018-06-13T21:09:10.028Z,4.20
2018-06-13T21:11:44.374Z,5.65
2018-06-13T21:14:15.769Z,4.47
2018-06-13T21:16:47.338Z,4.87
2018-06-13T21:19:20.526Z,4.97
2018-06-13T21:21:53.460Z,5.10
2018-06-13T21:24:25.139Z,5.75
2018-06-13T21:26:58.195Z,4.90
2018-06-13T21:29:29.672Z,4.22
2018-06-13T21:32:01.365Z,4.60
2018-06-13T21:34:32.945Z,4.10
2018-06-13T21:37:06.846Z,3.90
2018-06-13T21:39:40.264Z,4.57
2018-06-13T21:42:14.670Z,4.68
2018-06-13T21:44:47.945Z,3.72
2018-06-13T21:47:21.291Z,4.25
2018-06-13T21:49:55.885Z,4.40
2018-06-13T21:52:27.749Z,4.68
2018-06-13T21:54:59.265Z,4.50
2018-06-13T21:57:32.605Z,4.62
2018-06-13T22:00:04.160Z,5.15
2018-06-13T22:02:35.615Z,6.15
2018-06-13T22:05:07.375Z,4.72
2018-06-13T22:07:39.087Z,6.22
2018-06-13T22:10:10.794Z,5.72
2018-06-13T22:12:45.843Z,4.90
2018-06-13T22:15:22.245Z,5.97
2018-06-13T22:17:58.815Z,4.60
2018-06-13T22:20:30.731Z,4.90
2018-06-13T22:23:00.742Z,5.65
2018-06-13T22:25:33.602Z,5.97
2018-06-13T22:28:06.829Z,5.78
2018-06-13T22:30:39.817Z,5.68
2018-06-13T22:33:11.340Z,6.53
2018-06-13T22:35:46.131Z,7.25
2018-06-13T22:38:20.759Z,6.25
2018-06-13T22:40:54.601Z,6.25
2018-06-13T22:43:28.925Z,5.97
2018-06-13T22:46:01.865Z,6.78
2018-06-13T22:48:35.000Z,5.35
2018-06-13T22:51:08.320Z,6.82
2018-06-13T22:53:41.363Z,6.28
2018-06-13T22:56:13.189Z,5.97
2018-06-13T22:58:45.610Z,6.28
2018-06-13T23:01:18.598Z,5.22
2018-06-13T23:03:53.278Z,7.65
2018-06-13T23:06:23.171Z,6.60
2018-06-13T23:08:56.121Z,5.65
2018-06-13T23:11:27.713Z,5.80
2018-06-13T23:14:02.737Z,6.47
2018-06-13T23:16:37.331Z,6.12
2018-06-13T23:19:11.969Z,7.93
2018-06-13T23:21:45.063Z,11.43
2018-06-13T23:24:16.478Z,9.50
2018-06-13T23:26:51.280Z,12.95
2018-06-13T23:29:23.294Z,9.85
2018-06-13T23:31:56.862Z,11.93
2018-06-13T23:34:32.562Z,10.57
2018-06-13T23:37:07.208Z,9.80
2018-06-13T23:39:40.176Z,11.12
2018-06-13T23:42:13.988Z,8.93
2018-06-13T23:44:45.620Z,9.10
2018-06-13T23:47:17.159Z,5.60
2018-06-13T23:49:50.554Z,10.45
2018-06-13T23:52:22.353Z,12.40
2018-06-13T23:54:54.387Z,15.25
2018-06-13T23:57:25.006Z,14.73
2018-06-13T23:59:56.660Z,15.65
